Arthur, Indiana
Current Conditions -  °F | °C
As of 8:35 AM on Sunday 23 Nov 2014 (Local Time) from KHNB Reporting Station
Overcast Overcast  
Wind Chill: 10°   Ceiling: 2800
Heat Index: 10°   Visibility: 5mi
Dew Point:   Wind: 8mph
Humidity: 82%   Direction: 130°SE
Pressure: 29.86"   Gusts: NA
Location:  38.3488°N, 87.2217°W
Report Text: KHNB 231435Z AUTO 13007KT 5SM SCT023 BKN028 OVC033 10/07 A2986 RMK AO1 P0002
Loading
Personal Weather Stations






























Interactive Weather Map New forecast layout! Learn more

10-Day Weather Forecast

Advertisements
Track Severe Weather on mobile